Time;durP1;ratioP1;P1;durP2;ratioP2;P2;SDS_P1;SDS_P2;PMS_P1;PMS_P2;Temp;Humidity;BMP_temperature;BMP_pressure;BME280_temperature;BME280_humidity;BME280_pressure;Samples;Min_cycle;Max_cycle;Signal;HPM_P1;HPM_P2
2022/05/07 00:00:14;;;;;;;5.20;3.78;;;12.80;99.90;;;;;;4993840;28;20032;-51
2022/05/07 00:02:40;;;;;;;4.35;3.50;;;12.80;99.90;;;;;;4993627;28;20033;-50
2022/05/07 00:05:06;;;;;;;4.20;3.80;;;12.80;99.90;;;;;;4993363;28;20367;-50
2022/05/07 00:07:32;;;;;;;6.47;4.55;;;12.80;99.90;;;;;;4993518;28;20036;-49
2022/05/07 00:09:57;;;;;;;4.93;3.90;;;12.80;99.90;;;;;;4993511;28;20029;-51
2022/05/07 00:12:23;;;;;;;4.35;3.78;;;12.80;99.90;;;;;;4993032;28;20023;-49
2022/05/07 00:14:48;;;;;;;4.80;4.30;;;12.80;99.90;;;;;;4975908;28;20031;-50
2022/05/07 00:19:58;;;;;;;4.65;4.13;;;12.80;99.90;;;;;;4993500;28;20037;-51
2022/05/07 00:22:23;;;;;;;6.70;4.55;;;12.80;99.90;;;;;;4993403;28;20026;-49
2022/05/07 00:24:50;;;;;;;6.32;4.57;;;12.80;99.90;;;;;;4992564;28;20031;-49
2022/05/07 00:27:16;;;;;;;5.55;4.60;;;12.80;99.90;;;;;;4993069;28;20395;-50
2022/05/07 00:29:41;;;;;;;5.22;4.22;;;12.80;99.90;;;;;;4993020;28;20034;-48
2022/05/07 00:32:08;;;;;;;4.80;4.32;;;12.80;99.90;;;;;;4975399;28;20031;-53
2022/05/07 00:34:34;;;;;;;6.07;4.80;;;12.70;99.90;;;;;;4993214;28;20433;-48
2022/05/07 00:36:59;;;;;;;5.15;4.43;;;12.70;99.90;;;;;;4993271;28;20026;-48
2022/05/07 00:39:25;;;;;;;5.50;4.00;;;12.70;99.90;;;;;;4975189;28;20077;-50
2022/05/07 00:41:52;;;;;;;5.40;4.78;;;12.70;99.90;;;;;;4992589;28;20022;-49
2022/05/07 00:44:18;;;;;;;6.68;4.47;;;12.70;99.90;;;;;;4974945;28;20029;-49
2022/05/07 00:46:44;;;;;;;4.78;4.38;;;12.60;99.90;;;;;;4992959;28;20038;-50
2022/05/07 00:49:10;;;;;;;4.80;4.30;;;12.60;99.90;;;;;;4992784;28;20577;-50
2022/05/07 00:51:37;;;;;;;8.30;6.13;;;12.60;99.90;;;;;;4992359;28;20114;-52
2022/05/07 00:54:08;;;;;;;5.68;4.72;;;12.50;99.90;;;;;;4994017;28;20034;-48
2022/05/07 00:56:35;;;;;;;9.20;6.43;;;12.50;99.90;;;;;;5012022;28;20084;-48
2022/05/07 00:59:01;;;;;;;9.63;7.68;;;12.50;99.90;;;;;;5010206;28;20033;-47
2022/05/07 01:01:27;;;;;;;9.07;7.22;;;12.50;99.90;;;;;;5009389;28;20034;-50
2022/05/07 01:03:53;;;;;;;8.05;6.97;;;12.50;99.90;;;;;;5010254;28;20044;-54
2022/05/07 01:06:20;;;;;;;9.27;7.35;;;12.50;99.90;;;;;;5011216;28;20406;-52
2022/05/07 01:08:47;;;;;;;11.77;8.45;;;12.50;99.90;;;;;;5011646;28;20220;-52
2022/05/07 01:11:15;;;;;;;9.50;7.90;;;12.50;99.90;;;;;;5011525;28;20026;-50
2022/05/07 01:13:42;;;;;;;8.50;7.32;;;12.50;99.90;;;;;;5012077;28;20030;-48
2022/05/07 01:16:08;;;;;;;9.40;7.45;;;12.50;99.90;;;;;;5012112;28;20114;-51
2022/05/07 01:18:33;;;;;;;8.85;7.10;;;12.50;99.90;;;;;;5011370;28;20045;-50
2022/05/07 01:21:06;;;;;;;10.98;8.30;;;12.50;99.90;;;;;;4994231;28;20014;-51
2022/05/07 01:23:32;;;;;;;9.77;7.38;;;12.50;99.90;;;;;;5011725;28;20026;-48
2022/05/07 01:25:59;;;;;;;9.65;6.90;;;12.50;99.90;;;;;;4993982;28;20017;-50
2022/05/07 01:28:24;;;;;;;9.77;7.03;;;12.40;99.90;;;;;;4993616;28;20080;-52
2022/05/07 01:30:50;;;;;;;7.93;7.13;;;12.40;99.90;;;;;;5011176;28;20034;-49
2022/05/07 01:33:16;;;;;;;8.82;6.78;;;12.40;99.90;;;;;;5011194;28;20022;-47
2022/05/07 01:35:41;;;;;;;9.73;6.68;;;12.40;99.90;;;;;;5011423;28;20104;-51
2022/05/07 01:38:07;;;;;;;8.35;7.45;;;12.40;99.90;;;;;;5011392;28;20034;-50
2022/05/07 01:40:32;;;;;;;7.85;6.38;;;12.40;99.90;;;;;;5011588;28;20030;-51
2022/05/07 01:42:58;;;;;;;7.90;5.90;;;12.40;99.90;;;;;;4993476;28;20446;-49
2022/05/07 01:45:23;;;;;;;7.85;6.60;;;12.30;99.90;;;;;;5011302;28;20076;-50
2022/05/07 01:50:33;;;;;;;7.57;5.90;;;12.30;99.90;;;;;;5011551;28;20216;-47
2022/05/07 01:52:59;;;;;;;7.45;6.13;;;12.30;99.90;;;;;;5011122;28;20113;-48
2022/05/07 01:55:24;;;;;;;7.07;5.82;;;12.30;99.90;;;;;;4993560;28;20125;-48
2022/05/07 01:57:50;;;;;;;6.03;5.03;;;12.30;99.90;;;;;;5011182;28;20167;-48
2022/05/07 02:00:16;;;;;;;7.03;5.30;;;12.30;99.90;;;;;;5010568;28;20030;-52
2022/05/07 02:02:42;;;;;;;7.97;5.88;;;12.30;99.90;;;;;;4998597;28;20394;-54
2022/05/07 02:05:07;;;;;;;7.05;5.57;;;12.20;99.90;;;;;;4984401;28;20022;-48
2022/05/07 02:07:33;;;;;;;7.95;5.60;;;12.20;99.90;;;;;;5010627;28;20382;-49
2022/05/07 02:09:58;;;;;;;8.57;6.55;;;12.30;99.90;;;;;;5010721;28;20123;-48
2022/05/07 02:12:24;;;;;;;8.25;5.72;;;12.20;99.90;;;;;;4981798;28;20027;-49
2022/05/07 02:14:49;;;;;;;7.80;6.07;;;12.20;99.90;;;;;;4999263;28;20026;-48
2022/05/07 02:17:15;;;;;;;6.63;5.68;;;12.10;99.90;;;;;;5010871;28;20382;-49
2022/05/07 02:19:40;;;;;;;10.15;6.35;;;12.10;99.90;;;;;;5010339;28;20482;-48
2022/05/07 02:22:06;;;;;;;7.97;6.80;;;12.10;99.90;;;;;;5010502;28;20030;-51
2022/05/07 02:24:32;;;;;;;15.15;10.13;;;12.10;99.90;;;;;;5010380;28;20018;-50
2022/05/07 02:26:58;;;;;;;11.40;7.90;;;12.10;99.90;;;;;;5010467;28;20107;-49
2022/05/07 02:29:23;;;;;;;15.95;10.13;;;12.00;99.90;;;;;;5010681;28;20029;-48
2022/05/07 02:32:05;;;;;;;14.18;9.65;;;12.10;99.90;;;;;;5010625;28;20091;-52
2022/05/07 02:34:36;;;;;;;12.80;11.05;;;12.10;99.90;;;;;;5010738;28;20033;-49
2022/05/07 02:37:03;;;;;;;16.20;12.32;;;12.10;99.90;;;;;;5010371;28;20062;-48
2022/05/07 02:39:29;;;;;;;13.48;11.02;;;12.10;99.90;;;;;;4992477;28;20605;-48
2022/05/07 02:44:39;;;;;;;14.95;11.70;;;12.10;99.90;;;;;;5010749;28;20402;-48
2022/05/07 02:47:05;;;;;;;18.02;13.38;;;12.10;99.90;;;;;;4992746;28;20018;-49
2022/05/07 02:49:31;;;;;;;18.58;13.60;;;12.10;99.90;;;;;;5010304;28;20089;-49
2022/05/07 02:51:57;;;;;;;19.17;14.57;;;12.10;99.90;;;;;;5009936;28;20041;-48
2022/05/07 02:54:23;;;;;;;17.40;13.10;;;12.10;99.90;;;;;;5009931;28;20073;-49
2022/05/07 02:56:48;;;;;;;17.50;12.40;;;12.10;99.90;;;;;;5010230;28;20475;-50
2022/05/07 02:59:14;;;;;;;17.75;13.70;;;12.10;99.90;;;;;;5010114;28;20030;-49
2022/05/07 03:01:42;;;;;;;16.85;13.05;;;12.10;99.90;;;;;;5009792;28;20106;-49
2022/05/07 03:04:08;;;;;;;15.80;12.50;;;12.10;99.90;;;;;;5009640;28;20533;-48
2022/05/07 03:06:34;;;;;;;18.92;14.45;;;12.10;99.90;;;;;;5010076;28;20034;-53
2022/05/07 03:09:00;;;;;;;21.05;14.48;;;12.10;99.90;;;;;;5010231;28;20486;-53
2022/05/07 03:11:26;;;;;;;20.27;15.18;;;12.00;99.90;;;;;;5009669;28;20029;-51
2022/05/07 03:13:51;;;;;;;19.58;16.38;;;12.00;99.90;;;;;;5010105;28;20101;-49
2022/05/07 03:16:17;;;;;;;19.58;15.63;;;12.00;99.90;;;;;;5009913;28;20026;-51
2022/05/07 03:18:43;;;;;;;20.13;15.52;;;11.90;99.90;;;;;;5009520;28;20033;-52
2022/05/07 03:21:10;;;;;;;23.52;16.00;;;11.80;99.90;;;;;;5010087;28;20053;-52
2022/05/07 03:23:35;;;;;;;19.65;14.52;;;11.80;99.90;;;;;;5009930;28;20105;-52
2022/05/07 03:26:01;;;;;;;24.00;16.38;;;11.70;99.90;;;;;;5009691;28;20402;-49
2022/05/07 03:28:26;;;;;;;25.50;17.88;;;11.70;99.90;;;;;;5009775;28;20054;-50
2022/05/07 03:30:52;;;;;;;26.17;17.50;;;11.60;99.90;;;;;;5009766;28;20038;-49
2022/05/07 03:33:18;;;;;;;21.15;15.82;;;11.50;99.90;;;;;;4991639;28;20022;-50
2022/05/07 03:35:47;;;;;;;28.00;18.67;;;11.50;99.90;;;;;;5009770;28;20455;-53
2022/05/07 03:38:12;;;;;;;23.20;17.90;;;11.40;99.90;;;;;;4992125;28;20029;-50
2022/05/07 03:40:38;;;;;;;24.15;18.02;;;11.40;99.90;;;;;;5009821;28;20476;-51
2022/05/07 03:43:05;;;;;;;24.60;18.20;;;11.40;99.90;;;;;;5009551;28;20417;-48
2022/05/07 03:45:32;;;;;;;28.15;18.98;;;11.30;99.90;;;;;;5009589;28;20033;-48
2022/05/07 03:47:57;;;;;;;24.25;18.80;;;11.30;99.90;;;;;;5009679;28;20490;-49
2022/05/07 03:50:23;;;;;;;24.77;18.83;;;11.30;99.90;;;;;;5010026;28;20022;-52
2022/05/07 03:55:32;;;;;;;27.80;21.27;;;11.20;99.90;;;;;;5009648;28;20095;-48
2022/05/07 03:57:58;;;;;;;31.55;21.95;;;11.20;99.90;;;;;;5009477;28;20025;-49
2022/05/07 04:00:23;;;;;;;31.30;21.30;;;11.20;99.90;;;;;;5009577;28;20030;-51
2022/05/07 04:02:49;;;;;;;31.60;21.98;;;11.10;99.90;;;;;;5009374;28;20137;-48
2022/05/07 04:05:15;;;;;;;30.85;22.60;;;11.10;99.90;;;;;;5009529;28;20050;-52
2022/05/07 04:07:40;;;;;;;28.30;21.48;;;11.10;99.90;;;;;;5009078;28;20509;-51
2022/05/07 04:10:06;;;;;;;31.45;23.02;;;11.10;99.90;;;;;;5009343;28;20601;-48
2022/05/07 04:12:32;;;;;;;32.00;22.60;;;11.10;99.90;;;;;;5009120;28;20022;-52
2022/05/07 04:15:01;;;;;;;29.92;23.30;;;11.00;99.90;;;;;;5009252;28;20026;-50
2022/05/07 04:17:27;;;;;;;29.70;21.15;;;11.00;99.90;;;;;;5009327;28;20026;-48
2022/05/07 04:19:54;;;;;;;31.10;22.98;;;11.00;99.90;;;;;;5009166;28;20097;-48
2022/05/07 04:22:19;;;;;;;33.08;22.45;;;11.00;99.90;;;;;;5009345;28;20076;-50
2022/05/07 04:24:45;;;;;;;27.83;22.20;;;11.00;99.90;;;;;;5008936;28;20022;-48
2022/05/07 04:27:11;;;;;;;30.67;23.35;;;11.00;99.90;;;;;;5009430;28;20026;-48
2022/05/07 04:29:36;;;;;;;29.48;22.58;;;11.00;99.90;;;;;;5012288;28;20128;-52
2022/05/07 04:32:03;;;;;;;28.65;21.77;;;11.00;99.90;;;;;;5012659;28;20036;-50
2022/05/07 04:34:29;;;;;;;27.42;21.42;;;11.10;99.90;;;;;;5012487;28;20041;-50
2022/05/07 04:36:56;;;;;;;27.88;20.58;;;11.10;99.90;;;;;;4994926;28;20036;-48
2022/05/07 04:39:21;;;;;;;33.30;25.65;;;11.10;99.90;;;;;;5012277;28;20033;-48
2022/05/07 04:41:47;;;;;;;35.92;24.98;;;11.10;99.90;;;;;;5012163;28;20025;-49
2022/05/07 04:44:13;;;;;;;30.40;23.42;;;11.10;99.90;;;;;;5012095;28;20026;-51
2022/05/07 04:46:39;;;;;;;33.83;24.27;;;11.20;99.90;;;;;;5012349;28;20072;-49
2022/05/07 04:49:05;;;;;;;32.42;24.23;;;11.20;99.90;;;;;;5012386;28;20057;-49
2022/05/07 04:51:31;;;;;;;33.40;25.05;;;11.30;99.90;;;;;;5012025;28;20034;-51
2022/05/07 04:53:57;;;;;;;33.63;24.38;;;11.30;99.90;;;;;;5011763;28;20057;-49
2022/05/07 04:56:24;;;;;;;38.17;26.67;;;11.40;99.90;;;;;;5012314;28;20048;-48
2022/05/07 04:58:51;;;;;;;38.20;26.42;;;11.40;99.90;;;;;;5012147;28;20033;-50
2022/05/07 05:01:17;;;;;;;31.45;24.77;;;11.50;99.90;;;;;;5012054;28;20081;-51
2022/05/07 05:03:43;;;;;;;40.17;28.05;;;11.60;99.90;;;;;;4994775;28;20026;-50
2022/05/07 05:06:08;;;;;;;41.10;27.98;;;11.60;99.90;;;;;;5012449;28;20026;-48
2022/05/07 05:08:34;;;;;;;40.90;27.20;;;11.70;99.90;;;;;;5012244;28;20069;-52
2022/05/07 05:11:00;;;;;;;33.03;25.58;;;11.70;99.90;;;;;;5012310;28;20065;-50
2022/05/07 05:13:25;;;;;;;37.75;28.88;;;11.80;99.90;;;;;;5011567;28;20438;-52
2022/05/07 05:15:51;;;;;;;40.42;27.65;;;11.90;99.90;;;;;;5012079;28;20057;-50
2022/05/07 05:18:16;;;;;;;38.47;27.23;;;12.00;99.90;;;;;;5011905;28;20033;-54
2022/05/07 05:20:42;;;;;;;34.95;26.55;;;12.00;99.90;;;;;;4993616;28;20036;-53
2022/05/07 05:23:08;;;;;;;36.35;26.77;;;12.10;99.90;;;;;;5011577;28;20105;-49
2022/05/07 05:25:33;;;;;;;38.42;28.08;;;12.20;99.90;;;;;;5011693;28;20066;-50
2022/05/07 05:27:59;;;;;;;38.05;27.40;;;12.30;99.90;;;;;;5011691;28;20033;-52
2022/05/07 05:30:24;;;;;;;37.70;27.13;;;12.30;99.90;;;;;;5011767;28;20506;-50
2022/05/07 05:32:50;;;;;;;36.33;25.67;;;12.30;99.90;;;;;;5011327;28;20571;-51
2022/05/07 05:35:15;;;;;;;37.22;26.17;;;12.40;99.90;;;;;;5011459;28;20386;-51
2022/05/07 05:37:41;;;;;;;36.25;27.15;;;12.40;99.90;;;;;;5011062;28;20062;-50
2022/05/07 05:40:07;;;;;;;35.28;25.42;;;12.50;99.90;;;;;;5010003;28;20465;-52
2022/05/07 05:42:33;;;;;;;39.03;26.88;;;12.60;99.90;;;;;;5010844;28;20026;-50
2022/05/07 05:44:58;;;;;;;35.22;27.33;;;12.60;99.90;;;;;;4993931;28;20036;-50
2022/05/07 05:47:24;;;;;;;33.78;25.70;;;12.70;99.90;;;;;;5011761;28;20584;-52
2022/05/07 05:49:50;;;;;;;35.78;26.15;;;12.70;99.90;;;;;;5011136;28;20390;-50
2022/05/07 05:52:16;;;;;;;34.10;24.60;;;12.80;99.90;;;;;;4993528;28;20037;-54
2022/05/07 05:54:41;;;;;;;34.35;25.58;;;12.90;99.90;;;;;;5010993;28;20058;-50
2022/05/07 05:57:07;;;;;;;32.88;23.02;;;13.10;99.90;;;;;;5011194;28;20029;-48
2022/05/07 05:59:33;;;;;;;30.40;23.55;;;13.20;99.90;;;;;;5011076;28;20030;-51
2022/05/07 06:01:58;;;;;;;32.30;23.75;;;13.20;99.90;;;;;;5010648;28;20046;-52
2022/05/07 06:04:24;;;;;;;37.58;25.88;;;13.30;99.90;;;;;;5009964;28;20034;-50
2022/05/07 06:06:49;;;;;;;31.38;22.10;;;13.30;99.90;;;;;;5010799;28;20077;-50
2022/05/07 06:09:15;;;;;;;31.73;21.58;;;13.40;99.90;;;;;;5010518;28;20113;-48
2022/05/07 06:11:41;;;;;;;32.55;24.35;;;13.50;99.90;;;;;;5010192;28;20072;-53
2022/05/07 06:14:07;;;;;;;28.23;22.67;;;13.60;99.90;;;;;;4992969;28;20097;-53
2022/05/07 06:16:32;;;;;;;26.83;21.88;;;13.70;99.90;;;;;;5010583;28;20088;-53
2022/05/07 06:18:58;;;;;;;33.28;22.58;;;13.80;99.90;;;;;;5010350;28;20061;-50
2022/05/07 06:21:25;;;;;;;27.27;20.63;;;14.00;99.90;;;;;;5010489;28;20406;-54
2022/05/07 06:23:50;;;;;;;26.88;19.20;;;14.10;99.90;;;;;;5010822;28;20088;-50
2022/05/07 06:29:01;;;;;;;25.90;18.90;;;14.30;99.90;;;;;;5010579;28;20572;-53
2022/05/07 06:31:27;;;;;;;27.25;19.08;;;14.40;99.90;;;;;;5010169;28;20022;-51
2022/05/07 06:33:52;;;;;;;23.00;16.67;;;14.40;99.90;;;;;;5010307;28;20084;-51
2022/05/07 06:36:18;;;;;;;19.60;15.07;;;14.40;99.90;;;;;;5010481;28;20061;-51
2022/05/07 06:38:43;;;;;;;21.88;16.10;;;14.40;99.90;;;;;;5010186;28;20029;-51
2022/05/07 06:41:09;;;;;;;22.63;15.55;;;14.40;99.90;;;;;;5010027;28;20022;-54
2022/05/07 06:43:35;;;;;;;20.60;15.88;;;14.40;99.90;;;;;;5010090;28;20574;-52
2022/05/07 06:46:01;;;;;;;21.05;14.65;;;14.50;99.90;;;;;;5010252;28;20026;-50
2022/05/07 06:48:27;;;;;;;22.83;15.35;;;14.60;99.90;;;;;;5009994;28;20450;-52
2022/05/07 06:50:54;;;;;;;21.33;15.35;;;14.70;99.90;;;;;;5009525;28;20049;-50
2022/05/07 06:53:20;;;;;;;33.25;17.15;;;14.80;99.90;;;;;;5009536;28;20026;-49
2022/05/07 06:55:55;;;;;;;22.15;16.58;;;14.80;99.90;;;;;;5010237;28;20072;-55
2022/05/07 06:58:30;;;;;;;18.77;13.55;;;14.80;99.90;;;;;;5009921;28;20041;-49
2022/05/07 07:01:01;;;;;;;18.52;13.23;;;14.80;99.90;;;;;;5009952;28;20025;-54
2022/05/07 07:03:27;;;;;;;18.98;13.75;;;14.90;99.90;;;;;;5009759;28;20187;-50
2022/05/07 07:05:53;;;;;;;15.23;13.60;;;14.90;99.90;;;;;;5009663;28;20474;-52
2022/05/07 07:08:20;;;;;;;16.92;12.75;;;14.90;99.90;;;;;;5009949;28;20037;-52
2022/05/07 07:10:45;;;;;;;17.73;13.50;;;15.00;99.90;;;;;;5009759;28;20038;-51
2022/05/07 07:13:11;;;;;;;19.30;13.32;;;15.00;99.90;;;;;;4991572;28;20509;-50
2022/05/07 07:15:39;;;;;;;19.02;13.18;;;15.10;99.90;;;;;;4991834;28;20087;-51
2022/05/07 07:18:11;;;;;;;19.27;13.00;;;15.20;99.90;;;;;;5009829;28;20034;-49
2022/05/07 07:20:41;;;;;;;22.02;15.27;;;15.30;99.90;;;;;;5009486;28;20022;-54
2022/05/07 07:23:11;;;;;;;22.33;14.98;;;15.40;99.90;;;;;;5009753;28;20033;-50
2022/05/07 07:25:41;;;;;;;19.77;13.38;;;15.50;99.90;;;;;;5009684;28;20037;-52
2022/05/07 07:28:11;;;;;;;15.40;13.60;;;15.60;99.90;;;;;;5009688;28;20108;-52
2022/05/07 07:30:37;;;;;;;18.60;13.82;;;15.80;99.90;;;;;;5009995;28;20033;-50
2022/05/07 07:33:04;;;;;;;20.35;13.68;;;15.80;99.90;;;;;;5009449;28;20030;-55
2022/05/07 07:35:30;;;;;;;16.65;13.80;;;15.80;99.90;;;;;;5009818;28;20389;-52
2022/05/07 07:37:56;;;;;;;16.30;12.75;;;15.80;99.90;;;;;;5009861;28;20478;-52
2022/05/07 07:40:21;;;;;;;16.92;12.77;;;15.80;99.90;;;;;;5009936;28;20041;-49
2022/05/07 07:42:47;;;;;;;18.33;14.45;;;15.90;99.90;;;;;;5009759;28;20057;-50
2022/05/07 07:48:03;;;;;;;19.00;13.48;;;16.00;99.90;;;;;;5010587;28;20091;-53
2022/05/07 07:50:31;;;;;;;19.38;13.40;;;16.00;99.90;;;;;;5010039;28;20153;-51
2022/05/07 07:53:04;;;;;;;16.10;12.60;;;16.10;99.90;;;;;;5009680;28;20165;-50
2022/05/07 07:55:31;;;;;;;16.48;12.27;;;16.10;99.90;;;;;;5009501;28;20038;-53
2022/05/07 07:57:57;;;;;;;17.13;12.52;;;16.20;99.90;;;;;;4992118;28;20045;-54
2022/05/07 08:00:24;;;;;;;14.07;11.57;;;16.30;99.90;;;;;;5010082;28;20049;-54
2022/05/07 08:02:55;;;;;;;17.67;12.05;;;16.30;99.90;;;;;;4999915;28;20506;-51
2022/05/07 08:05:22;;;;;;;18.73;11.98;;;16.30;99.90;;;;;;5013589;28;20703;-50
2022/05/07 08:13:17;;;;;;;12.13;9.88;;;16.50;99.90;;;;;;5013597;28;20075;-53
2022/05/07 08:15:42;;;;;;;16.02;11.27;;;16.60;99.90;;;;;;5013201;28;20489;-50
2022/05/07 08:18:08;;;;;;;15.52;10.52;;;16.60;99.90;;;;;;5013166;28;20541;-54
2022/05/07 08:20:34;;;;;;;13.30;10.40;;;16.50;99.90;;;;;;5013107;28;20033;-56
2022/05/07 08:22:59;;;;;;;12.98;10.73;;;16.60;99.90;;;;;;4995570;28;20025;-53
2022/05/07 08:25:25;;;;;;;13.75;10.02;;;16.70;99.90;;;;;;5013104;28;20387;-53
2022/05/07 08:27:50;;;;;;;13.20;10.05;;;16.80;99.90;;;;;;5012854;28;20025;-49
2022/05/07 08:30:16;;;;;;;16.70;10.10;;;16.80;99.90;;;;;;4995194;28;20453;-55
2022/05/07 08:32:42;;;;;;;14.65;10.48;;;16.90;99.90;;;;;;5012598;28;20036;-52
2022/05/07 08:35:08;;;;;;;10.90;8.57;;;16.90;99.90;;;;;;5012528;28;20022;-49
2022/05/07 08:37:33;;;;;;;12.20;9.30;;;17.00;99.90;;;;;;5012523;28;20057;-53
2022/05/07 08:40:01;;;;;;;15.20;9.52;;;17.00;99.90;;;;;;5012540;28;20061;-52
2022/05/07 08:42:36;;;;;;;13.32;10.05;;;17.10;99.90;;;;;;5012619;28;20502;-51
2022/05/07 08:45:02;;;;;;;10.80;8.73;;;17.20;99.90;;;;;;4994939;28;20032;-50
2022/05/07 08:47:29;;;;;;;11.65;9.05;;;17.10;99.90;;;;;;5012723;28;20017;-51
2022/05/07 08:49:55;;;;;;;15.07;8.88;;;17.20;99.90;;;;;;5012319;28;20026;-53
2022/05/07 08:52:22;;;;;;;12.63;9.07;;;17.10;99.90;;;;;;5012065;28;20045;-54
2022/05/07 08:54:47;;;;;;;11.80;9.10;;;17.20;99.90;;;;;;5012101;28;20030;-54
2022/05/07 08:57:13;;;;;;;14.45;9.20;;;17.30;99.90;;;;;;5012852;28;20080;-51
2022/05/07 08:59:39;;;;;;;12.80;9.23;;;17.40;99.90;;;;;;5012637;28;20117;-51
2022/05/07 09:02:06;;;;;;;12.23;9.27;;;17.50;99.90;;;;;;4994882;28;20022;-53
2022/05/07 09:04:32;;;;;;;14.95;8.65;;;17.60;99.90;;;;;;5012081;28;20569;-53
2022/05/07 09:06:58;;;;;;;14.82;9.50;;;17.70;99.90;;;;;;5012371;28;20112;-50
2022/05/07 09:09:23;;;;;;;11.57;9.13;;;17.70;99.90;;;;;;5012191;28;20030;-53
2022/05/07 09:11:49;;;;;;;8.85;7.95;;;17.80;99.90;;;;;;5012038;28;20440;-55
2022/05/07 09:14:18;;;;;;;12.40;9.48;;;17.80;99.90;;;;;;5011970;28;20492;-54
2022/05/07 09:16:47;;;;;;;14.52;9.27;;;17.90;99.90;;;;;;5012391;28;20022;-51
2022/05/07 09:19:20;;;;;;;12.32;8.35;;;18.00;99.90;;;;;;4994281;28;20069;-51
2022/05/07 09:21:47;;;;;;;12.68;9.18;;;18.20;99.90;;;;;;5012358;28;20026;-53
2022/05/07 09:24:13;;;;;;;13.98;10.73;;;18.40;99.90;;;;;;5012228;28;20026;-52
2022/05/07 09:26:40;;;;;;;16.88;10.27;;;18.50;99.90;;;;;;5012155;28;20041;-53
2022/05/07 09:29:11;;;;;;;12.45;10.70;;;18.50;99.90;;;;;;5012295;28;20077;-52
2022/05/07 09:31:37;;;;;;;11.57;9.98;;;18.60;99.90;;;;;;5012174;28;20544;-51
2022/05/07 09:37:12;;;;;;;13.75;10.38;;;18.80;99.90;;;;;;5012421;28;20117;-55
2022/05/07 09:39:38;;;;;;;17.33;10.43;;;18.90;99.90;;;;;;5012210;28;20455;-53
2022/05/07 09:42:06;;;;;;;18.83;12.98;;;19.00;99.90;;;;;;5011861;28;20029;-54
2022/05/07 09:44:33;;;;;;;18.27;11.98;;;19.00;99.90;;;;;;5011822;28;20022;-53
2022/05/07 09:46:59;;;;;;;13.88;10.80;;;19.00;99.90;;;;;;5011788;28;20363;-53
2022/05/07 09:49:28;;;;;;;15.30;11.73;;;18.90;99.90;;;;;;5011900;28;20414;-51
2022/05/07 09:51:55;;;;;;;13.88;11.15;;;19.10;99.90;;;;;;5011344;28;20029;-53
2022/05/07 09:59:52;;;;;;;12.40;9.60;;;18.90;99.90;;;;;;5011296;28;20410;-50
2022/05/07 10:02:47;;;;;;;13.75;9.48;;;19.00;99.90;;;;;;5011088;28;20030;-54
2022/05/07 10:05:23;;;;;;;9.52;7.30;;;19.20;99.90;;;;;;5010871;28;20026;-50
2022/05/07 10:07:58;;;;;;;;;;;19.40;99.90;;;;;;5011922;28;20026;-52
2022/05/07 10:10:29;;;;;;;10.35;8.68;;;19.50;99.90;;;;;;5011278;28;19909;-53
2022/05/07 10:12:57;;;;;;;11.07;7.25;;;19.70;99.90;;;;;;4993410;28;20033;-51
2022/05/07 10:15:25;;;;;;;8.63;6.25;;;19.50;99.90;;;;;;5011279;28;20041;-47
2022/05/07 10:18:02;;;;;;;9.10;7.82;;;19.40;99.90;;;;;;5011396;28;20034;-56
2022/05/07 10:20:57;;;;;;;10.57;8.23;;;19.70;99.90;;;;;;5010979;28;20033;-55
2022/05/07 10:23:29;;;;;;;9.45;6.90;;;20.00;99.90;;;;;;4976802;28;20038;-50
2022/05/07 10:25:57;;;;;;;9.38;7.40;;;20.20;99.90;;;;;;5010138;28;20505;-48
2022/05/07 10:28:22;;;;;;;11.82;7.70;;;20.10;99.90;;;;;;5010913;28;20041;-48
2022/05/07 10:30:50;;;;;;;7.55;6.22;;;20.00;99.90;;;;;;5010755;28;20390;-50
2022/05/07 10:33:18;;;;;;;10.02;6.72;;;20.00;99.90;;;;;;5010481;28;20041;-50
2022/05/07 10:35:52;;;;;;;10.50;6.60;;;19.90;99.90;;;;;;5010880;28;20437;-48
2022/05/07 10:38:26;;;;;;;7.60;5.78;;;19.80;99.90;;;;;;5010661;28;20058;-50
2022/05/07 10:40:56;;;;;;;9.38;5.28;;;19.80;99.90;;;;;;5010688;28;20029;-48
2022/05/07 10:43:30;;;;;;;5.88;4.85;;;19.70;99.90;;;;;;5010269;28;20021;-49
2022/05/07 10:45:59;;;;;;;10.13;7.13;;;19.60;99.90;;;;;;5010635;28;20113;-52
2022/05/07 10:48:25;;;;;;;11.43;7.38;;;19.40;99.90;;;;;;5010614;28;20061;-52
2022/05/07 10:50:57;;;;;;;10.95;7.25;;;19.20;99.90;;;;;;5010608;28;20030;-50
2022/05/07 10:53:34;;;;;;;9.75;7.70;;;19.10;99.90;;;;;;5010170;28;20036;-48
2022/05/07 10:55:59;;;;;;;8.80;6.57;;;18.90;99.90;;;;;;5010792;28;20029;-48
2022/05/07 10:58:29;;;;;;;9.23;6.63;;;18.80;99.90;;;;;;5010487;28;20034;-51
2022/05/07 11:00:59;;;;;;;10.00;8.07;;;18.70;99.90;;;;;;5010455;28;20018;-49
2022/05/07 11:03:26;;;;;;;10.32;6.88;;;18.70;99.90;;;;;;5010009;28;20068;-50
2022/05/07 11:05:59;;;;;;;9.02;6.97;;;18.80;99.90;;;;;;4992735;28;20061;-50
2022/05/07 11:08:26;;;;;;;10.13;8.18;;;19.00;99.90;;;;;;5010173;28;20033;-48
2022/05/07 11:11:03;;;;;;;11.68;7.90;;;19.10;99.90;;;;;;5010157;28;20033;-51
2022/05/07 11:13:28;;;;;;;11.77;8.38;;;19.20;99.90;;;;;;4992058;28;20026;-49
2022/05/07 11:16:03;;;;;;;12.38;7.30;;;19.20;99.90;;;;;;5010113;28;20032;-49
2022/05/07 11:18:33;;;;;;;9.57;7.38;;;19.00;99.90;;;;;;5009742;28;20112;-53
2022/05/07 11:21:04;;;;;;;9.68;6.15;;;18.90;99.90;;;;;;5010408;28;20041;-52
2022/05/07 11:23:36;;;;;;;8.15;6.63;;;19.00;99.90;;;;;;5009894;28;20025;-48
2022/05/07 11:26:16;;;;;;;8.98;5.82;;;18.90;99.90;;;;;;5010172;28;20014;-55
2022/05/07 11:28:45;;;;;;;7.85;6.50;;;18.90;99.90;;;;;;5010147;28;20036;-51
2022/05/07 11:31:25;;;;;;;10.38;6.18;;;18.90;99.90;;;;;;5010159;28;20038;-55
2022/05/07 11:34:03;;;;;;;7.82;5.28;;;18.80;99.90;;;;;;5010389;28;20518;-54
2022/05/07 11:36:29;;;;;;;8.30;5.85;;;18.70;99.90;;;;;;5010430;28;20027;-54
2022/05/07 11:38:59;;;;;;;5.95;5.32;;;18.70;99.90;;;;;;5013937;28;20037;-52
2022/05/07 11:41:25;;;;;;;6.85;5.72;;;18.60;99.90;;;;;;5013748;28;20025;-53
2022/05/07 11:46:54;;;;;;;7.60;5.40;;;18.50;99.90;;;;;;5014462;28;20033;-52
2022/05/07 11:49:34;;;;;;;10.50;5.15;;;18.50;99.90;;;;;;5014020;28;20026;-55
2022/05/07 11:52:13;;;;;;;16.77;5.60;;;18.60;99.90;;;;;;5013743;28;20521;-50
2022/05/07 11:54:49;;;;;;;7.18;5.32;;;18.60;99.90;;;;;;4995843;28;20045;-49
2022/05/07 11:57:29;;;;;;;7.55;4.68;;;18.30;99.90;;;;;;4996195;28;20064;-53
2022/05/07 11:59:55;;;;;;;6.05;4.95;;;18.20;99.90;;;;;;5013598;28;20092;-51
2022/05/07 12:02:20;;;;;;;6.00;5.10;;;18.10;99.90;;;;;;4995668;28;20486;-54
2022/05/07 12:04:55;;;;;;;7.22;4.68;;;18.00;99.90;;;;;;5013425;28;20390;-52
2022/05/07 12:07:21;;;;;;;7.95;4.43;;;18.10;99.90;;;;;;5013793;28;20080;-51
2022/05/07 12:09:46;;;;;;;5.65;3.58;;;18.30;99.90;;;;;;5013456;28;20030;-53
2022/05/07 12:12:12;;;;;;;5.30;3.20;;;18.70;99.90;;;;;;5013410;28;20063;-50
2022/05/07 12:14:37;;;;;;;5.45;1.92;;;18.80;99.90;;;;;;5013738;28;20037;-49
2022/05/07 12:19:49;;;;;;;3.53;1.70;;;18.80;99.90;;;;;;5013098;28;20064;-52
2022/05/07 12:30:26;;;;;;;3.60;2.30;;;19.30;99.90;;;;;;5013124;28;20036;-49
2022/05/07 12:32:54;;;;;;;3.17;1.90;;;19.20;99.90;;;;;;5012887;28;20104;-52
2022/05/07 12:35:20;;;;;;;4.97;2.10;;;19.10;99.90;;;;;;5012591;28;20110;-49
2022/05/07 12:37:45;;;;;;;3.88;1.83;;;19.00;99.90;;;;;;5012733;28;20097;-51
2022/05/07 12:40:14;;;;;;;1.98;1.55;;;19.00;99.90;;;;;;4995182;28;20474;-50
2022/05/07 12:42:39;;;;;;;2.10;1.77;;;18.80;99.90;;;;;;5012484;28;20441;-50
2022/05/07 12:45:07;;;;;;;4.60;2.00;;;18.70;99.90;;;;;;5012528;28;20026;-53
2022/05/07 12:47:33;;;;;;;2.72;1.63;;;18.70;99.90;;;;;;5012967;28;20029;-48
2022/05/07 12:49:58;;;;;;;2.80;1.90;;;18.50;99.90;;;;;;4994715;28;20022;-49
2022/05/07 12:52:24;;;;;;;2.95;2.22;;;18.20;99.90;;;;;;5012699;28;20034;-48
2022/05/07 12:54:50;;;;;;;4.65;2.85;;;18.00;99.90;;;;;;5012606;28;20030;-53
2022/05/07 12:57:15;;;;;;;3.40;2.10;;;17.80;99.90;;;;;;5012840;28;20096;-51
2022/05/07 12:59:42;;;;;;;4.55;2.17;;;17.90;99.90;;;;;;5012606;28;20026;-49
2022/05/07 13:02:11;;;;;;;3.33;2.38;;;17.90;99.90;;;;;;4994837;28;20030;-50
2022/05/07 13:04:36;;;;;;;2.53;1.85;;;17.70;99.90;;;;;;5011968;28;20030;-48
2022/05/07 13:07:02;;;;;;;3.45;2.17;;;17.80;99.90;;;;;;5012611;28;20025;-50
2022/05/07 13:09:28;;;;;;;3.80;2.30;;;17.80;99.90;;;;;;5012441;28;20570;-55
2022/05/07 13:11:54;;;;;;;4.35;2.90;;;17.90;99.90;;;;;;5012114;28;20026;-51
2022/05/07 13:14:20;;;;;;;5.22;3.58;;;17.70;99.90;;;;;;4994608;28;20025;-52
2022/05/07 13:16:46;;;;;;;3.22;2.60;;;17.60;99.90;;;;;;5012372;28;20026;-49
2022/05/07 13:19:12;;;;;;;3.80;2.90;;;17.50;99.90;;;;;;5012019;28;20041;-49